Ottignies
Brabant Wallon




Entrainement :
tous les mercredis
à 18h30 au
Tennis Club du Parc,
avenue Einstein
1348 Louvain La Neuve
________________________________________________________________________________








Classement Général
  Nom Prenom Club Categorie Temps
1 MONTOISY ADRIEN TRAIN 7 M/30-39/1 46:44
2 DEBLANDER ROMAIN USBW ROAD TEAM M/20-29/1 47:07
3 RIQUET BENJAMIN   M/30-39/2 47:31
4 DESCAMPE ARNAUD TRAIN 7 M/20-29/2 48:21
5 POGGI ELIO   M/20-29/3 49:02
6 THIRY SAMUEL   M/30-39/3 49:44
7 IWENS ALAIN HOOIBERGLOPERS M/50-59/1 50:04
8 POTOCNY PETER   M/30-39/4 52:00
9 FADOUL TAHA CACE M/40-49/1 52:27
10 OST VINCENT   M/40-49/2 52:47
11 BUIS QUENTIN RONVAU M/20-29/4 53:41
12 PEPIN CEDRIC RONVAU M/30-39/5 54:29
13 QUINTELA DANIEL JET M/40-49/3 55:16
14 MONTOISY GUILLAUME TRAIN 7 M/30-39/6 55:28
15 LEJEUNE LUDOVIC RIWA M/30-39/7 55:36
16 CHARLOTEAU NICOLAS   M/30-39/8 56:08
17 VAN POUCKE CEDRIC   M/30-39/9 56:12
18 LORGE JEAN MARC RONVAU M/50-59/2 57:26
19 HAULAIT SANDRA CEPAL D/30-39/1 57:34
20 BRIOT GAETAN   M/20-29/5 57:40
21 DESPY PASCAL GAG M/30-39/10 57:51
22 DEWANDRE THOMAS   M/30-39/11 58:03
23 SCHEURS SEBASTIEN   M/40-49/4 58:11
24       /37281177 58:26
25 DALAIDEN NICOLAS   M/20-29/6 58:55
26 LUYCKFASSEEL YANN   M/30-39/12 59:05
27 LARACHI SOFIAN   M/20-29/7 59:13
28 DEBIE WALTER   M/60-69/1 59:16
29 ANDRES OLIVIER   M/50-59/3 59:18
30 LAUREYS PIERRE ANTILOB M/50-59/4 1:00:01
31 SOILLE JEAN-DAVID   M/30-39/13 1:00:07
32 KAMP OLIVIER MAGICOS M/40-49/5 1:00:22
33 LEGROS HARRY TURBO M/30-39/14 1:00:35
34 MONTOISY LOUISE TRAIN 7 D/20-29/1 1:00:41
35 POLOME GUY   M/50-59/5 1:01:03
36 DEWULF GUILLAUME   M/30-39/15 1:01:21
37 HANQUET AXEL BIOTRAIL RUNNING TEA M/30-39/16 1:01:43
38 MATTART DENIS JE COURS A INCOURT M/20-29/8 1:02:13
39 DECLERCK JAN HWJ HOEGARDEN M/40-49/6 1:02:28
40 RASQUINET LAURENT   M/40-49/7 1:03:00
41 D ANGELO AMERINO ZATAC CHARLEROI M/50-59/6 1:03:10
42 MOERMAN JONAS   M/40-49/8 1:03:34
43 BALME OLIVIER   M/30-39/17 1:03:35
44 GHYSSELINCKX CHRISTOPHE JAMES M/30-39/18 1:03:49
45 TOURNEUR THOMAS   M/20-29/9 1:04:03
46 STROOMER MARC   M/40-49/9 1:04:13
47 DEROY PHILIPPE ZATAC CHARLEROI M/60-69/2 1:04:16
48 MINNAERT CAROLE   D/30-39/2 1:04:31
49 DECLERCQ JOE CEPAL M/50-59/7 1:04:33
50 HAULOTTE OLIVIER JE COURS A INCOURT M/40-49/10 1:04:40
51 LUYTS EMIEL JC VELTEM M/50-59/8 1:04:48
52 VAN YPERSELE RAPHAEL   M/20-29/10 1:05:36
53 MAUFROID VIOLAINE KURISTO D/30-39/3 1:05:37
54 MELANGE LEON KURISTO M/60-69/3 1:05:38
55 FAIVRE STEPHANE   M/20-29/11 1:05:43
56 HEYMANS STEPHANE   M/40-49/11 1:05:58
57 CRETENS QUENTIN   M/30-39/19 1:06:30
58 PEROO DAVID JCPMFMONT ST GUIBERT M/40-49/12 1:06:35
59 LESNE DIDIER LDLV M/50-59/9 1:06:38
60 PERMENTIER DELPHINE JCPMFMONT ST GUIBERT D/30-39/4 1:06:41
61 VIGNY LAURENT   M/50-59/10 1:06:42
62 DE VLEESCHOUWER CHRISTOPHE   M/70 &+/1 1:07:12
63 MANFRON ELISEO JAMES M/50-59/11 1:07:15
64 DESCAMPS LUC JAMES M/40-49/13 1:07:16
65 BEN AYAD MOHAMMED KURISTO M/50-59/12 1:07:18
66 GRANDELET PHILIPPE   M/40-49/14 1:07:23
67 CAMBIER EMMANUEL   M/30-39/20 1:07:25
68 VANACKERE GILLES ANTILOB M/20-29/12 1:07:45
69 PIRLOT AUGUSTIN RUNNIN GREZ M/20-29/13 1:07:47
70 PAULUS YVES JC OETINGEN M/40-49/15 1:07:59
71 GUILLERM DAVID RONVAU M/40-49/16 1:08:29
72 VANHEOGSERDER THIERRY RUNNIN GREZ M/20-29/14 1:08:32
73 MIRAUMONT LAURENT JCPMFMONT ST GUIBERT M/40-49/17 1:08:45
74 LAMBERT CHRISTOPHE NAC M/40-49/18 1:08:48
75 LECLERCQ SOPHIE   D/20-29/2 1:08:52
76 VAN BAMIS CLAUDE   M/60-69/4 1:08:54
77 PEETERS SEBASTIEN JCPMF GENAPPE M/40-49/19 1:08:56
78 LISSENS DANIEL KAPSALONLUC M/70 &+/2 1:08:58
79 VUYLSTEKE PHILIPPE   M/50-59/13 1:09:11
80 DEBLANDER BRUNO USBW ROAD TEAM M/50-59/14 1:09:42
81 MAGOTTE OLIVIER JAMES M/40-49/20 1:10:06
82 BAETENS DAMIEN FFBC M/30-39/21 1:10:36
83 DUPLAT FRANCOISE JAMES D/40-49/1 1:10:46
84 CHABEAU VINCIANE ANTILOB D/50-59/1 1:10:48
85 DEMARTEAU ALAIN JOGGANS M/60-69/5 1:10:55
86 EYLENBOSCH GASTON B.V.L M/60-69/6 1:11:08
87 POTY FRANCIS   M/50-59/15 1:11:14
88 DUCORME PASCAL   M/40-49/21 1:11:22
89 PIERREUX STEPHANE JCPMF GENAPPE M/40-49/22 1:11:28
90 ANGELY GAETAN USBW ROAD TEAM M/70 &+/3 1:11:40
91 COOLS CHRISTIAN JAMES M/50-59/16 1:11:47
92 PARMENTIER KARINE NAC D/40-49/2 1:12:14
93 LEROY MICHEL   M/60-69/7 1:12:24
94 VANHALLE FRANCOIS-XAVIER RUN4VILLERS M/30-39/22 1:12:30
95 HAESEBROUCK GILLES   M/30-39/23 1:12:41
96 CAISE CARINE COATCHING D/50-59/2 1:12:59
97 SPIESSENS JOHAN HWJ HOEGARDEN M/50-59/17 1:13:00
98 LELOUP STEPHAN   M/60-69/8 1:13:09
99 NOEL HERVE JE COURS A INCOURT M/30-39/24 1:13:15
100 VANOMMESLAEGHE DAMIEN CS DYL.G M/40-49/23 1:13:17
101 TIELEMANS PHILIPPE RUN4VILLERS M/50-59/18 1:13:49
102 HORENT DAVID   M/40-49/24 1:13:50
103 DEPREZ CHRISTIAN RONVAU M/60-69/9 1:14:05
104 DEGAND ERIC   M/40-49/25 1:14:16
105 DEJONGHE JEAN-PAUL JAMES M/60-69/10 1:14:54
106 PAGE THIBAUT JE COURS A INCOURT M/30-39/25 1:14:57
107 VERBRAEKEN NICOLAS   M/40-49/26 1:15:12
108 RONDOU PHILIPPE JCPMF GENAPPE M/50-59/19 1:15:31
109 POURTOIS CHRISTIAN   M/40-49/27 1:15:34
110 LAMBERT OLIVIER   M/40-49/28 1:15:51
111 QUINTIN JEAN-JACQUES JE COURS A INCOURT M/50-59/20 1:15:59
112 VANDEN BOSSCHE THIERRY RUN4VILLERS M/40-49/29 1:16:28
113 DE MEESTER THIERRY JAMES M/40-49/30 1:16:39
114 REUSS BENOIT TEND DET M/50-59/21 1:16:56
115 DEMAUT NATHALIE NAC D/30-39/5 1:17:18
116 DELCOIGNE SOPHIE   D/30-39/6 1:17:47
117 AUDENAERT GENEVIEVE JAMES D/30-39/7 1:17:52
118 DUCHENE CHRISTOPHE RONVAU M/30-39/26 1:17:54
119 HERION CECILE JE COURS A INCOURT D/40-49/3 1:17:55
120 VAN LAER YVES   M/50-59/22 1:17:58
121 VLAMINCK NATACHA SPT WAVRE D/40-49/4 1:18:02
122 VUYLSTEKE ELUSA   D/20-29/3 1:18:07
123 GHERAILLE JEAN-MARC   M/50-59/23 1:18:14
124 FEYS JEAN-LOUIS FURALOPE M/50-59/24 1:18:16
125 DA SILVA ISABEL   D/40-49/5 1:18:36
126 APPELMANS STEPHANE CSF M/40-49/31 1:18:38
127 BANNER CAROL   D/50-59/3 1:18:55
128 VILLATTE VERONIQUE   D/50-59/4 1:20:19
129 REY PHILIPPE   M/50-59/25 1:20:21
130 HERION ERIC   M/40-49/32 1:20:36
131 LUYCKX JOKE HOOIBERGLOPERS D/50-59/5 1:20:39
132 BONVAREZ RUDI VICTOIRE M/50-59/26 1:20:45
133 BAIKRICH GUY RCB M/70 &+/4 1:21:06
134 WARIN DIDIER BELGRAVE M/50-59/27 1:21:08
135 RENOTTE JEAN-CHRISTOPHE NAC M/50-59/28 1:21:20
136 PLETINCKX MARTINE CEPAL D/60-69/1 1:21:29
137 GOORMANS NATHALIE   D/30-39/8 1:21:33
138 ELHARCHI SAID   M/40-49/33 1:21:46
139 LEEMANS DIDIER ANTILOB M/50-59/29 1:21:55
140 DEGRIJSE ALEXANDRE STIMUL'US M/40-49/34 1:22:11
141 GIRBOUX SYBILLE JCPMF GENAPPE D/40-49/6 1:22:13
142 THIRY MELANIE JCPMFWALHAIN D/30-39/9 1:23:57
143 MOENS ALEXANDRA JCPMFWALHAIN D/30-39/10 1:24:08
144 BAUDOUX DIMITRI   M/30-39/27 1:24:28
145 HOCK FRANCOISE JAMES D/50-59/6 1:24:58
146 VANHUFFELEN JOSSELINE AXA TEAM D/60-69/2 1:26:01
147 FONTAINE BERNARD KURISTO M/50-59/30 1:26:29
148 STASSART MICHEL TEND DET M/50-59/31 1:26:36
149 MEEREMANS IVAN JC OETINGEN M/50-59/32 1:27:02
150 DENIS SABINE   D/40-49/7 1:28:06
151 SEGGIO PINO NAC M/70 &+/5 1:29:48
152 PANNEELS JEAN-JACQUES AXA TEAM M/60-69/11 1:29:50
153 SYMONS PETRO NAC M/60-69/12 1:30:04
154 KEYMOLEN ROGER JC OETINGEN M/60-69/13 1:30:07
155 BENABBAS IDIR   M/40-49/35 1:31:19
156 DENIS MARCEL   M/70 &+/6 1:32:40
157 PENNINCK DOMINIQUE KURISTO M/60-69/14 1:34:26
158 BUYENS JOHAN BAV M/60-69/15 1:35:49
159 DE MEES MARC HOOIBERGLOPERS M/70 &+/7 1:35:51
160 VAN HECKE EVA   D/30-39/11 1:35:53
161 VAN HECKE GEORGES JC ESTINNES M/60-69/16 1:35:55
162 GILLIOT ALAIN JCPMFMONT ST GUIBERT M/50-59/33 1:36:08
163 VLAMINCK GEORGET TEND DET M/70 &+/8 1:36:41
164 VANDEMEYD ERIC   M/50-59/34 1:36:59
165 NGUYEN KIM-CHI   D/30-39/12 1:47:57
166 PAULUS MARC JC OETINGEN M/60-69/17 1:50:28